sensor_id;sensor_type;location;lat;lon;timestamp;temperature;humidity
23801;DHT22;12081;48.614;10.226;2023-10-13T00:01:42;16.10;99.90
23801;DHT22;12081;48.614;10.226;2023-10-13T00:04:27;16.40;99.90
23801;DHT22;12081;48.614;10.226;2023-10-13T00:07:13;16.10;99.90
23801;DHT22;12081;48.614;10.226;2023-10-13T00:09:57;16.60;99.90
23801;DHT22;12081;48.614;10.226;2023-10-13T00:12:43;16.10;99.90
23801;DHT22;12081;48.614;10.226;2023-10-13T00:15:33;16.40;99.90
23801;DHT22;12081;48.614;10.226;2023-10-13T00:18:27;16.80;99.90
23801;DHT22;12081;48.614;10.226;2023-10-13T00:21:11;15.90;99.90
23801;DHT22;12081;48.614;10.226;2023-10-13T00:24:00;16.30;99.90
23801;DHT22;12081;48.614;10.226;2023-10-13T00:26:56;15.70;99.90
23801;DHT22;12081;48.614;10.226;2023-10-13T00:29:41;15.60;99.90
23801;DHT22;12081;48.614;10.226;2023-10-13T00:32:27;15.50;99.90
23801;DHT22;12081;48.614;10.226;2023-10-13T00:35:14;15.40;99.90
23801;DHT22;12081;48.614;10.226;2023-10-13T00:38:12;15.30;99.90
23801;DHT22;12081;48.614;10.226;2023-10-13T00:40:56;16.60;99.90
23801;DHT22;12081;48.614;10.226;2023-10-13T00:43:48;15.30;99.90
23801;DHT22;12081;48.614;10.226;2023-10-13T00:46:52;15.40;99.90
23801;DHT22;12081;48.614;10.226;2023-10-13T00:49:40;15.80;99.90
23801;DHT22;12081;48.614;10.226;2023-10-13T00:52:25;16.10;99.90
23801;DHT22;12081;48.614;10.226;2023-10-13T00:55:10;15.60;99.90
23801;DHT22;12081;48.614;10.226;2023-10-13T00:57:55;15.50;99.90
23801;DHT22;12081;48.614;10.226;2023-10-13T01:00:43;15.70;99.90
23801;DHT22;12081;48.614;10.226;2023-10-13T01:03:31;15.30;99.90
23801;DHT22;12081;48.614;10.226;2023-10-13T01:06:17;15.30;99.90
23801;DHT22;12081;48.614;10.226;2023-10-13T01:09:08;15.30;99.90
23801;DHT22;12081;48.614;10.226;2023-10-13T01:12:02;15.40;99.90
23801;DHT22;12081;48.614;10.226;2023-10-13T01:14:47;15.30;99.90
23801;DHT22;12081;48.614;10.226;2023-10-13T01:17:31;16.50;99.90
23801;DHT22;12081;48.614;10.226;2023-10-13T01:20:16;15.50;99.90
23801;DHT22;12081;48.614;10.226;2023-10-13T01:23:23;15.20;99.90
23801;DHT22;12081;48.614;10.226;2023-10-13T01:26:12;16.50;99.90
23801;DHT22;12081;48.614;10.226;2023-10-13T01:29:00;15.60;99.90
23801;DHT22;12081;48.614;10.226;2023-10-13T01:31:45;15.00;99.90
23801;DHT22;12081;48.614;10.226;2023-10-13T01:34:30;16.30;99.90
23801;DHT22;12081;48.614;10.226;2023-10-13T01:37:17;16.00;99.90
23801;DHT22;12081;48.614;10.226;2023-10-13T01:40:03;14.80;99.90
23801;DHT22;12081;48.614;10.226;2023-10-13T01:42:48;14.70;99.90
23801;DHT22;12081;48.614;10.226;2023-10-13T01:45:40;15.90;99.90
23801;DHT22;12081;48.614;10.226;2023-10-13T01:48:31;16.20;99.90
23801;DHT22;12081;48.614;10.226;2023-10-13T01:51:22;14.40;99.90
23801;DHT22;12081;48.614;10.226;2023-10-13T01:54:07;14.80;99.90
23801;DHT22;12081;48.614;10.226;2023-10-13T01:56:55;16.00;99.90
23801;DHT22;12081;48.614;10.226;2023-10-13T01:59:49;14.80;99.90
23801;DHT22;12081;48.614;10.226;2023-10-13T02:02:33;15.30;99.90
23801;DHT22;12081;48.614;10.226;2023-10-13T02:05:18;15.80;99.90
23801;DHT22;12081;48.614;10.226;2023-10-13T02:08:02;14.70;99.90
23801;DHT22;12081;48.614;10.226;2023-10-13T02:10:47;14.40;99.90
23801;DHT22;12081;48.614;10.226;2023-10-13T02:13:31;15.80;99.90
23801;DHT22;12081;48.614;10.226;2023-10-13T02:16:15;15.40;99.90
23801;DHT22;12081;48.614;10.226;2023-10-13T02:19:04;16.00;99.90
23801;DHT22;12081;48.614;10.226;2023-10-13T02:21:48;15.40;99.90
23801;DHT22;12081;48.614;10.226;2023-10-13T02:24:42;16.30;99.90
23801;DHT22;12081;48.614;10.226;2023-10-13T02:27:28;16.40;99.90
23801;DHT22;12081;48.614;10.226;2023-10-13T02:30:12;14.30;99.90
23801;DHT22;12081;48.614;10.226;2023-10-13T02:32:58;14.30;99.90
23801;DHT22;12081;48.614;10.226;2023-10-13T02:35:50;16.20;99.90
23801;DHT22;12081;48.614;10.226;2023-10-13T02:38:40;14.40;99.90
23801;DHT22;12081;48.614;10.226;2023-10-13T02:41:24;16.00;99.90
23801;DHT22;12081;48.614;10.226;2023-10-13T02:44:11;16.10;99.90
23801;DHT22;12081;48.614;10.226;2023-10-13T02:47:04;14.60;99.90
23801;DHT22;12081;48.614;10.226;2023-10-13T02:49:52;14.60;99.90
23801;DHT22;12081;48.614;10.226;2023-10-13T02:52:36;15.90;99.90
23801;DHT22;12081;48.614;10.226;2023-10-13T02:55:25;16.10;99.90
23801;DHT22;12081;48.614;10.226;2023-10-13T02:58:11;14.70;99.90
23801;DHT22;12081;48.614;10.226;2023-10-13T03:00:58;15.50;99.90
23801;DHT22;12081;48.614;10.226;2023-10-13T03:03:44;14.00;99.90
23801;DHT22;12081;48.614;10.226;2023-10-13T03:06:31;14.00;99.90
23801;DHT22;12081;48.614;10.226;2023-10-13T03:09:18;13.80;99.90
23801;DHT22;12081;48.614;10.226;2023-10-13T03:12:03;16.10;99.90
23801;DHT22;12081;48.614;10.226;2023-10-13T03:14:47;13.60;99.90
23801;DHT22;12081;48.614;10.226;2023-10-13T03:17:32;15.00;99.90
23801;DHT22;12081;48.614;10.226;2023-10-13T03:20:19;15.00;99.90
23801;DHT22;12081;48.614;10.226;2023-10-13T03:23:08;13.30;99.90
23801;DHT22;12081;48.614;10.226;2023-10-13T03:25:53;15.40;99.90
23801;DHT22;12081;48.614;10.226;2023-10-13T03:28:39;13.70;99.90
23801;DHT22;12081;48.614;10.226;2023-10-13T03:31:23;13.00;99.90
23801;DHT22;12081;48.614;10.226;2023-10-13T03:34:12;14.20;99.90
23801;DHT22;12081;48.614;10.226;2023-10-13T03:37:16;13.10;99.90
23801;DHT22;12081;48.614;10.226;2023-10-13T03:40:21;13.00;99.90
23801;DHT22;12081;48.614;10.226;2023-10-13T03:43:06;14.30;99.90
23801;DHT22;12081;48.614;10.226;2023-10-13T03:45:50;13.10;99.90
23801;DHT22;12081;48.614;10.226;2023-10-13T03:48:51;13.00;99.90
23801;DHT22;12081;48.614;10.226;2023-10-13T03:51:41;14.30;99.90
23801;DHT22;12081;48.614;10.226;2023-10-13T03:54:27;13.20;99.90
23801;DHT22;12081;48.614;10.226;2023-10-13T03:57:14;13.10;99.90
23801;DHT22;12081;48.614;10.226;2023-10-13T04:00:00;15.10;99.90
23801;DHT22;12081;48.614;10.226;2023-10-13T04:02:53;15.00;99.90
23801;DHT22;12081;48.614;10.226;2023-10-13T04:05:47;14.80;99.90
23801;DHT22;12081;48.614;10.226;2023-10-13T04:08:45;12.90;99.90
23801;DHT22;12081;48.614;10.226;2023-10-13T04:11:32;14.00;99.90
23801;DHT22;12081;48.614;10.226;2023-10-13T04:14:44;12.80;99.90
23801;DHT22;12081;48.614;10.226;2023-10-13T04:17:47;13.00;99.90
23801;DHT22;12081;48.614;10.226;2023-10-13T04:20:32;12.30;99.90
23801;DHT22;12081;48.614;10.226;2023-10-13T04:23:16;13.60;99.90
23801;DHT22;12081;48.614;10.226;2023-10-13T04:26:06;12.30;99.90
23801;DHT22;12081;48.614;10.226;2023-10-13T04:29:05;12.10;99.90
23801;DHT22;12081;48.614;10.226;2023-10-13T04:31:57;11.70;99.90
23801;DHT22;12081;48.614;10.226;2023-10-13T04:34:44;11.60;99.90
23801;DHT22;12081;48.614;10.226;2023-10-13T04:37:36;11.60;99.90
23801;DHT22;12081;48.614;10.226;2023-10-13T04:40:45;13.20;99.90
23801;DHT22;12081;48.614;10.226;2023-10-13T04:43:42;12.20;99.90
23801;DHT22;12081;48.614;10.226;2023-10-13T04:46:49;12.40;99.90
23801;DHT22;12081;48.614;10.226;2023-10-13T04:49:38;11.80;99.90
23801;DHT22;12081;48.614;10.226;2023-10-13T04:52:28;11.30;99.90
23801;DHT22;12081;48.614;10.226;2023-10-13T04:55:33;11.30;99.90
23801;DHT22;12081;48.614;10.226;2023-10-13T04:58:36;12.50;99.90
23801;DHT22;12081;48.614;10.226;2023-10-13T05:01:49;10.50;99.90
23801;DHT22;12081;48.614;10.226;2023-10-13T05:04:33;13.40;99.90
23801;DHT22;12081;48.614;10.226;2023-10-13T05:07:44;11.40;99.90
23801;DHT22;12081;48.614;10.226;2023-10-13T05:10:47;11.60;99.90
23801;DHT22;12081;48.614;10.226;2023-10-13T05:13:50;11.90;99.90
23801;DHT22;12081;48.614;10.226;2023-10-13T05:16:53;11.80;99.90
23801;DHT22;12081;48.614;10.226;2023-10-13T05:19:58;11.50;99.90
23801;DHT22;12081;48.614;10.226;2023-10-13T05:23:01;11.20;99.90
23801;DHT22;12081;48.614;10.226;2023-10-13T05:26:04;11.50;99.90
23801;DHT22;12081;48.614;10.226;2023-10-13T05:29:07;11.10;99.90
23801;DHT22;12081;48.614;10.226;2023-10-13T05:32:30;12.50;99.90
23801;DHT22;12081;48.614;10.226;2023-10-13T05:35:33;11.10;99.90
23801;DHT22;12081;48.614;10.226;2023-10-13T05:38:36;11.90;99.90
23801;DHT22;12081;48.614;10.226;2023-10-13T05:41:39;12.00;99.90
23801;DHT22;12081;48.614;10.226;2023-10-13T05:44:42;11.50;99.90
23801;DHT22;12081;48.614;10.226;2023-10-13T05:47:45;11.00;99.90
23801;DHT22;12081;48.614;10.226;2023-10-13T05:50:29;12.00;99.90
23801;DHT22;12081;48.614;10.226;2023-10-13T05:53:34;13.30;99.90
23801;DHT22;12081;48.614;10.226;2023-10-13T05:56:36;12.80;99.90
23801;DHT22;12081;48.614;10.226;2023-10-13T05:59:39;12.60;99.90
23801;DHT22;12081;48.614;10.226;2023-10-13T06:02:42;11.20;99.90
23801;DHT22;12081;48.614;10.226;2023-10-13T06:05:45;11.90;99.90
23801;DHT22;12081;48.614;10.226;2023-10-13T06:08:48;13.20;99.90
23801;DHT22;12081;48.614;10.226;2023-10-13T06:11:51;12.00;99.90
23801;DHT22;12081;48.614;10.226;2023-10-13T06:17:22;11.80;99.90
23801;DHT22;12081;48.614;10.226;2023-10-13T06:20:25;12.10;99.90
23801;DHT22;12081;48.614;10.226;2023-10-13T06:23:28;13.30;99.90
23801;DHT22;12081;48.614;10.226;2023-10-13T06:26:31;14.00;99.90
23801;DHT22;12081;48.614;10.226;2023-10-13T06:29:34;14.20;99.90
23801;DHT22;12081;48.614;10.226;2023-10-13T06:32:18;15.10;99.90
23801;DHT22;12081;48.614;10.226;2023-10-13T06:35:04;15.80;99.90
23801;DHT22;12081;48.614;10.226;2023-10-13T06:38:02;16.50;99.90
23801;DHT22;12081;48.614;10.226;2023-10-13T06:40:48;17.00;99.90
23801;DHT22;12081;48.614;10.226;2023-10-13T06:43:35;17.40;99.90
23801;DHT22;12081;48.614;10.226;2023-10-13T06:46:27;17.90;99.90
23801;DHT22;12081;48.614;10.226;2023-10-13T06:49:12;18.50;99.90
23801;DHT22;12081;48.614;10.226;2023-10-13T06:51:57;19.50;99.90
23801;DHT22;12081;48.614;10.226;2023-10-13T06:54:44;19.90;99.90
23801;DHT22;12081;48.614;10.226;2023-10-13T06:57:28;20.70;99.90
23801;DHT22;12081;48.614;10.226;2023-10-13T07:00:18;21.60;99.90
23801;DHT22;12081;48.614;10.226;2023-10-13T07:03:13;21.70;98.90
23801;DHT22;12081;48.614;10.226;2023-10-13T07:06:05;21.40;96.70
23801;DHT22;12081;48.614;10.226;2023-10-13T07:08:54;21.80;95.20
23801;DHT22;12081;48.614;10.226;2023-10-13T07:11:39;22.00;93.80
23801;DHT22;12081;48.614;10.226;2023-10-13T07:14:27;22.30;92.80
23801;DHT22;12081;48.614;10.226;2023-10-13T07:17:11;22.70;91.50
23801;DHT22;12081;48.614;10.226;2023-10-13T07:19:55;23.40;89.60
23801;DHT22;12081;48.614;10.226;2023-10-13T07:22:52;23.90;86.50
23801;DHT22;12081;48.614;10.226;2023-10-13T07:25:56;24.80;79.60
23801;DHT22;12081;48.614;10.226;2023-10-13T07:28:47;25.40;74.30
23801;DHT22;12081;48.614;10.226;2023-10-13T07:31:31;25.80;72.60
23801;DHT22;12081;48.614;10.226;2023-10-13T07:34:15;26.50;69.00
23801;DHT22;12081;48.614;10.226;2023-10-13T07:37:09;27.20;64.30
23801;DHT22;12081;48.614;10.226;2023-10-13T07:40:00;27.80;61.60
23801;DHT22;12081;48.614;10.226;2023-10-13T07:42:45;28.60;59.90
23801;DHT22;12081;48.614;10.226;2023-10-13T07:45:30;28.70;57.70
23801;DHT22;12081;48.614;10.226;2023-10-13T07:48:20;28.90;56.00
23801;DHT22;12081;48.614;10.226;2023-10-13T07:51:07;28.80;55.60
23801;DHT22;12081;48.614;10.226;2023-10-13T07:53:55;28.30;55.70
23801;DHT22;12081;48.614;10.226;2023-10-13T07:56:40;28.50;56.10
23801;DHT22;12081;48.614;10.226;2023-10-13T07:59:24;28.90;54.70
23801;DHT22;12081;48.614;10.226;2023-10-13T08:02:08;28.90;54.90
23801;DHT22;12081;48.614;10.226;2023-10-13T08:04:56;29.30;53.70
23801;DHT22;12081;48.614;10.226;2023-10-13T08:07:40;29.60;53.90
23801;DHT22;12081;48.614;10.226;2023-10-13T08:10:25;29.90;53.40
23801;DHT22;12081;48.614;10.226;2023-10-13T08:13:13;30.00;52.50
23801;DHT22;12081;48.614;10.226;2023-10-13T08:16:01;29.90;52.20
23801;DHT22;12081;48.614;10.226;2023-10-13T08:18:50;29.90;51.90
23801;DHT22;12081;48.614;10.226;2023-10-13T08:21:35;29.60;51.40
23801;DHT22;12081;48.614;10.226;2023-10-13T08:24:21;29.80;51.40
23801;DHT22;12081;48.614;10.226;2023-10-13T08:27:31;29.80;50.20
23801;DHT22;12081;48.614;10.226;2023-10-13T08:30:18;29.30;50.40
23801;DHT22;12081;48.614;10.226;2023-10-13T08:33:10;29.10;50.10
23801;DHT22;12081;48.614;10.226;2023-10-13T08:36:08;28.70;51.00
23801;DHT22;12081;48.614;10.226;2023-10-13T08:39:10;28.90;50.10
23801;DHT22;12081;48.614;10.226;2023-10-13T08:42:30;29.10;50.30
23801;DHT22;12081;48.614;10.226;2023-10-13T08:45:37;29.40;50.40
23801;DHT22;12081;48.614;10.226;2023-10-13T08:48:21;29.60;49.00
23801;DHT22;12081;48.614;10.226;2023-10-13T08:51:15;29.80;48.70
23801;DHT22;12081;48.614;10.226;2023-10-13T08:54:15;29.90;48.90
23801;DHT22;12081;48.614;10.226;2023-10-13T08:57:03;30.30;48.50
23801;DHT22;12081;48.614;10.226;2023-10-13T09:00:04;30.50;47.50
23801;DHT22;12081;48.614;10.226;2023-10-13T09:03:08;30.50;47.20
23801;DHT22;12081;48.614;10.226;2023-10-13T09:06:13;30.40;46.90
23801;DHT22;12081;48.614;10.226;2023-10-13T09:09:07;30.70;47.20
23801;DHT22;12081;48.614;10.226;2023-10-13T09:11:56;30.90;46.50
23801;DHT22;12081;48.614;10.226;2023-10-13T09:14:54;31.00;45.70
23801;DHT22;12081;48.614;10.226;2023-10-13T09:17:49;30.90;46.30
23801;DHT22;12081;48.614;10.226;2023-10-13T09:20:36;31.30;46.10
23801;DHT22;12081;48.614;10.226;2023-10-13T09:23:24;31.80;44.10
23801;DHT22;12081;48.614;10.226;2023-10-13T09:26:09;32.30;43.50
23801;DHT22;12081;48.614;10.226;2023-10-13T09:28:53;32.20;43.70
23801;DHT22;12081;48.614;10.226;2023-10-13T09:31:37;32.40;43.20
23801;DHT22;12081;48.614;10.226;2023-10-13T09:34:23;32.70;43.10
23801;DHT22;12081;48.614;10.226;2023-10-13T09:37:13;33.20;42.50
23801;DHT22;12081;48.614;10.226;2023-10-13T09:40:05;33.50;42.00
23801;DHT22;12081;48.614;10.226;2023-10-13T09:43:09;33.60;41.20
23801;DHT22;12081;48.614;10.226;2023-10-13T09:46:00;33.90;40.90
23801;DHT22;12081;48.614;10.226;2023-10-13T09:48:54;34.60;40.90
23801;DHT22;12081;48.614;10.226;2023-10-13T09:51:52;35.10;40.00
23801;DHT22;12081;48.614;10.226;2023-10-13T09:54:42;35.50;39.00
23801;DHT22;12081;48.614;10.226;2023-10-13T09:57:34;35.60;38.90
23801;DHT22;12081;48.614;10.226;2023-10-13T10:00:20;36.00;38.40
23801;DHT22;12081;48.614;10.226;2023-10-13T10:03:31;36.20;38.20
23801;DHT22;12081;48.614;10.226;2023-10-13T10:06:23;36.70;37.40
23801;DHT22;12081;48.614;10.226;2023-10-13T10:09:13;37.20;37.30
23801;DHT22;12081;48.614;10.226;2023-10-13T10:18:19;38.00;35.90
23801;DHT22;12081;48.614;10.226;2023-10-13T10:21:06;38.20;35.60
23801;DHT22;12081;48.614;10.226;2023-10-13T10:23:54;38.30;34.90
23801;DHT22;12081;48.614;10.226;2023-10-13T10:26:50;38.40;35.60
23801;DHT22;12081;48.614;10.226;2023-10-13T10:29:35;38.10;35.90
23801;DHT22;12081;48.614;10.226;2023-10-13T10:32:19;37.90;35.60
23801;DHT22;12081;48.614;10.226;2023-10-13T10:35:05;37.00;35.20
23801;DHT22;12081;48.614;10.226;2023-10-13T10:38:09;36.90;36.30
23801;DHT22;12081;48.614;10.226;2023-10-13T10:41:16;36.50;35.90
23801;DHT22;12081;48.614;10.226;2023-10-13T10:44:12;37.10;35.20
23801;DHT22;12081;48.614;10.226;2023-10-13T10:47:14;37.00;35.10
23801;DHT22;12081;48.614;10.226;2023-10-13T10:50:27;36.80;34.80
23801;DHT22;12081;48.614;10.226;2023-10-13T10:53:23;36.80;35.10
23801;DHT22;12081;48.614;10.226;2023-10-13T10:56:27;36.30;34.90
23801;DHT22;12081;48.614;10.226;2023-10-13T10:59:20;36.30;35.60
23801;DHT22;12081;48.614;10.226;2023-10-13T11:02:09;36.20;34.80
23801;DHT22;12081;48.614;10.226;2023-10-13T11:04:59;35.60;35.40
23801;DHT22;12081;48.614;10.226;2023-10-13T11:07:45;34.70;36.00
23801;DHT22;12081;48.614;10.226;2023-10-13T11:10:36;34.60;36.00
23801;DHT22;12081;48.614;10.226;2023-10-13T11:13:22;34.70;35.60
23801;DHT22;12081;48.614;10.226;2023-10-13T11:16:07;34.70;36.30
23801;DHT22;12081;48.614;10.226;2023-10-13T11:19:05;35.00;35.30
23801;DHT22;12081;48.614;10.226;2023-10-13T11:21:51;35.50;34.80
23801;DHT22;12081;48.614;10.226;2023-10-13T11:24:40;36.20;34.60
23801;DHT22;12081;48.614;10.226;2023-10-13T11:27:31;36.30;34.10
23801;DHT22;12081;48.614;10.226;2023-10-13T11:30:28;36.40;34.30
23801;DHT22;12081;48.614;10.226;2023-10-13T11:33:26;36.30;34.10
23801;DHT22;12081;48.614;10.226;2023-10-13T11:36:12;35.90;34.60
23801;DHT22;12081;48.614;10.226;2023-10-13T11:39:06;35.20;34.50
23801;DHT22;12081;48.614;10.226;2023-10-13T11:41:52;34.10;35.70
23801;DHT22;12081;48.614;10.226;2023-10-13T11:44:39;33.90;35.40
23801;DHT22;12081;48.614;10.226;2023-10-13T11:47:27;34.70;37.70
23801;DHT22;12081;48.614;10.226;2023-10-13T11:50:31;35.60;36.70
23801;DHT22;12081;48.614;10.226;2023-10-13T11:53:19;35.80;33.70
23801;DHT22;12081;48.614;10.226;2023-10-13T11:56:04;34.80;34.20
23801;DHT22;12081;48.614;10.226;2023-10-13T11:58:53;34.30;35.20
23801;DHT22;12081;48.614;10.226;2023-10-13T12:01:38;33.50;35.70
23801;DHT22;12081;48.614;10.226;2023-10-13T12:04:41;32.60;37.00
23801;DHT22;12081;48.614;10.226;2023-10-13T12:07:27;32.40;37.70
23801;DHT22;12081;48.614;10.226;2023-10-13T12:10:29;32.40;37.30
23801;DHT22;12081;48.614;10.226;2023-10-13T12:13:33;32.40;37.00
23801;DHT22;12081;48.614;10.226;2023-10-13T12:16:17;32.60;36.70
23801;DHT22;12081;48.614;10.226;2023-10-13T12:19:03;32.60;36.30
23801;DHT22;12081;48.614;10.226;2023-10-13T12:21:56;32.80;36.90
23801;DHT22;12081;48.614;10.226;2023-10-13T12:24:40;32.80;36.30
23801;DHT22;12081;48.614;10.226;2023-10-13T12:27:24;32.50;36.80
23801;DHT22;12081;48.614;10.226;2023-10-13T12:30:11;32.60;36.30
23801;DHT22;12081;48.614;10.226;2023-10-13T12:32:57;32.40;36.40
23801;DHT22;12081;48.614;10.226;2023-10-13T12:35:56;32.30;36.70
23801;DHT22;12081;48.614;10.226;2023-10-13T12:38:58;32.10;36.60
23801;DHT22;12081;48.614;10.226;2023-10-13T12:41:52;32.00;36.70
23801;DHT22;12081;48.614;10.226;2023-10-13T12:44:55;31.90;37.40
23801;DHT22;12081;48.614;10.226;2023-10-13T12:47:58;32.00;37.60
23801;DHT22;12081;48.614;10.226;2023-10-13T12:51:04;32.20;37.00
23801;DHT22;12081;48.614;10.226;2023-10-13T12:54:07;32.30;37.60
23801;DHT22;12081;48.614;10.226;2023-10-13T12:57:19;32.50;36.50
23801;DHT22;12081;48.614;10.226;2023-10-13T13:00:07;32.20;36.90
23801;DHT22;12081;48.614;10.226;2023-10-13T13:03:02;32.30;37.30
23801;DHT22;12081;48.614;10.226;2023-10-13T13:05:55;32.20;36.50
23801;DHT22;12081;48.614;10.226;2023-10-13T13:08:39;32.40;36.30
23801;DHT22;12081;48.614;10.226;2023-10-13T13:11:28;32.80;35.80
23801;DHT22;12081;48.614;10.226;2023-10-13T13:14:13;32.50;36.10
23801;DHT22;12081;48.614;10.226;2023-10-13T13:16:58;32.50;36.60
23801;DHT22;12081;48.614;10.226;2023-10-13T13:19:51;32.30;36.90
23801;DHT22;12081;48.614;10.226;2023-10-13T13:22:35;32.40;36.60
23801;DHT22;12081;48.614;10.226;2023-10-13T13:25:19;32.30;37.00
23801;DHT22;12081;48.614;10.226;2023-10-13T13:28:09;32.30;36.80
23801;DHT22;12081;48.614;10.226;2023-10-13T13:30:55;32.50;37.10
23801;DHT22;12081;48.614;10.226;2023-10-13T13:33:39;32.60;36.80
23801;DHT22;12081;48.614;10.226;2023-10-13T13:36:27;32.50;36.30
23801;DHT22;12081;48.614;10.226;2023-10-13T13:39:11;32.50;36.50
23801;DHT22;12081;48.614;10.226;2023-10-13T13:41:56;32.00;36.30
23801;DHT22;12081;48.614;10.226;2023-10-13T13:44:44;31.80;36.60
23801;DHT22;12081;48.614;10.226;2023-10-13T13:47:30;31.40;37.20
23801;DHT22;12081;48.614;10.226;2023-10-13T13:50:17;31.40;37.20
23801;DHT22;12081;48.614;10.226;2023-10-13T13:53:07;31.40;37.20
23801;DHT22;12081;48.614;10.226;2023-10-13T13:55:53;31.40;36.60
23801;DHT22;12081;48.614;10.226;2023-10-13T13:58:37;31.20;36.60
23801;DHT22;12081;48.614;10.226;2023-10-13T14:01:22;31.00;36.90
23801;DHT22;12081;48.614;10.226;2023-10-13T14:04:06;30.90;37.20
23801;DHT22;12081;48.614;10.226;2023-10-13T14:06:51;30.80;37.10
23801;DHT22;12081;48.614;10.226;2023-10-13T14:09:35;30.70;37.20
23801;DHT22;12081;48.614;10.226;2023-10-13T14:12:24;30.40;37.40
23801;DHT22;12081;48.614;10.226;2023-10-13T14:15:20;30.40;37.70
23801;DHT22;12081;48.614;10.226;2023-10-13T14:18:07;30.50;38.20
23801;DHT22;12081;48.614;10.226;2023-10-13T14:20:58;30.60;37.40
23801;DHT22;12081;48.614;10.226;2023-10-13T14:23:49;30.30;37.60
23801;DHT22;12081;48.614;10.226;2023-10-13T14:26:33;30.00;38.30
23801;DHT22;12081;48.614;10.226;2023-10-13T14:29:19;29.90;38.50
23801;DHT22;12081;48.614;10.226;2023-10-13T14:32:03;29.80;38.60
23801;DHT22;12081;48.614;10.226;2023-10-13T14:34:48;29.50;38.70
23801;DHT22;12081;48.614;10.226;2023-10-13T14:37:38;29.30;39.20
23801;DHT22;12081;48.614;10.226;2023-10-13T14:40:22;29.20;39.40
23801;DHT22;12081;48.614;10.226;2023-10-13T14:43:06;29.10;39.40
23801;DHT22;12081;48.614;10.226;2023-10-13T14:45:53;28.90;39.70
23801;DHT22;12081;48.614;10.226;2023-10-13T14:48:37;28.80;40.40
23801;DHT22;12081;48.614;10.226;2023-10-13T14:51:23;28.50;40.80
23801;DHT22;12081;48.614;10.226;2023-10-13T14:54:09;28.50;40.30
23801;DHT22;12081;48.614;10.226;2023-10-13T14:56:53;28.40;41.30
23801;DHT22;12081;48.614;10.226;2023-10-13T14:59:39;28.30;40.40
23801;DHT22;12081;48.614;10.226;2023-10-13T15:02:23;28.20;40.80
23801;DHT22;12081;48.614;10.226;2023-10-13T15:05:07;28.10;41.60
23801;DHT22;12081;48.614;10.226;2023-10-13T15:07:51;28.20;41.60
23801;DHT22;12081;48.614;10.226;2023-10-13T15:10:35;28.10;41.20
23801;DHT22;12081;48.614;10.226;2023-10-13T15:13:21;27.80;41.30
23801;DHT22;12081;48.614;10.226;2023-10-13T15:16:20;27.60;41.60
23801;DHT22;12081;48.614;10.226;2023-10-13T15:19:05;27.40;41.50
23801;DHT22;12081;48.614;10.226;2023-10-13T15:21:51;27.30;42.00
23801;DHT22;12081;48.614;10.226;2023-10-13T15:24:37;27.10;42.10
23801;DHT22;12081;48.614;10.226;2023-10-13T15:27:27;27.00;42.70
23801;DHT22;12081;48.614;10.226;2023-10-13T15:30:12;26.80;42.70
23801;DHT22;12081;48.614;10.226;2023-10-13T15:33:08;26.70;43.10
23801;DHT22;12081;48.614;10.226;2023-10-13T15:35:52;26.50;43.60
23801;DHT22;12081;48.614;10.226;2023-10-13T15:38:37;26.40;43.60
23801;DHT22;12081;48.614;10.226;2023-10-13T15:41:25;26.20;44.20
23801;DHT22;12081;48.614;10.226;2023-10-13T15:44:13;26.10;44.20
23801;DHT22;12081;48.614;10.226;2023-10-13T15:46:58;25.90;44.60
23801;DHT22;12081;48.614;10.226;2023-10-13T15:49:45;25.80;45.00
23801;DHT22;12081;48.614;10.226;2023-10-13T15:52:29;25.50;45.20
23801;DHT22;12081;48.614;10.226;2023-10-13T15:55:16;25.40;45.70
23801;DHT22;12081;48.614;10.226;2023-10-13T15:58:05;25.20;45.80
23801;DHT22;12081;48.614;10.226;2023-10-13T16:00:53;25.00;46.30
23801;DHT22;12081;48.614;10.226;2023-10-13T16:03:40;24.80;46.40
23801;DHT22;12081;48.614;10.226;2023-10-13T16:06:27;24.70;46.90
23801;DHT22;12081;48.614;10.226;2023-10-13T16:09:14;25.30;47.50
23801;DHT22;12081;48.614;10.226;2023-10-13T16:11:58;24.20;47.60
23801;DHT22;12081;48.614;10.226;2023-10-13T16:14:42;24.00;48.00
23801;DHT22;12081;48.614;10.226;2023-10-13T16:17:26;23.90;48.20
23801;DHT22;12081;48.614;10.226;2023-10-13T16:20:12;23.60;48.70
23801;DHT22;12081;48.614;10.226;2023-10-13T16:23:00;23.50;49.10
23801;DHT22;12081;48.614;10.226;2023-10-13T16:25:44;24.60;50.20
23801;DHT22;12081;48.614;10.226;2023-10-13T16:28:28;24.00;50.20
23801;DHT22;12081;48.614;10.226;2023-10-13T16:31:12;23.70;50.30
23801;DHT22;12081;48.614;10.226;2023-10-13T16:33:57;23.10;50.30
23801;DHT22;12081;48.614;10.226;2023-10-13T16:36:46;22.60;50.40
23801;DHT22;12081;48.614;10.226;2023-10-13T16:39:31;22.50;50.70
23801;DHT22;12081;48.614;10.226;2023-10-13T16:42:15;22.30;51.00
23801;DHT22;12081;48.614;10.226;2023-10-13T16:45:00;22.30;51.20
23801;DHT22;12081;48.614;10.226;2023-10-13T16:48:03;22.10;51.50
23801;DHT22;12081;48.614;10.226;2023-10-13T16:50:49;22.00;51.90
23801;DHT22;12081;48.614;10.226;2023-10-13T16:53:33;23.10;53.00
23801;DHT22;12081;48.614;10.226;2023-10-13T16:56:17;21.70;52.80
23801;DHT22;12081;48.614;10.226;2023-10-13T16:59:01;21.60;52.90
23801;DHT22;12081;48.614;10.226;2023-10-13T17:01:49;21.50;53.80
23801;DHT22;12081;48.614;10.226;2023-10-13T17:04:33;21.40;54.10
23801;DHT22;12081;48.614;10.226;2023-10-13T17:07:17;21.40;53.90
23801;DHT22;12081;48.614;10.226;2023-10-13T17:10:03;21.20;54.20
23801;DHT22;12081;48.614;10.226;2023-10-13T17:12:47;21.10;54.50
23801;DHT22;12081;48.614;10.226;2023-10-13T17:15:32;20.90;54.70
23801;DHT22;12081;48.614;10.226;2023-10-13T17:18:16;20.90;55.10
23801;DHT22;12081;48.614;10.226;2023-10-13T17:21:00;20.80;55.40
23801;DHT22;12081;48.614;10.226;2023-10-13T17:23:45;20.60;55.60
23801;DHT22;12081;48.614;10.226;2023-10-13T17:26:30;20.70;55.90
23801;DHT22;12081;48.614;10.226;2023-10-13T17:29:14;20.50;56.10
23801;DHT22;12081;48.614;10.226;2023-10-13T17:31:58;20.40;56.30
23801;DHT22;12081;48.614;10.226;2023-10-13T17:34:42;20.50;56.70
23801;DHT22;12081;48.614;10.226;2023-10-13T17:37:30;20.30;56.80
23801;DHT22;12081;48.614;10.226;2023-10-13T17:40:14;20.20;57.20
23801;DHT22;12081;48.614;10.226;2023-10-13T17:43:02;20.10;57.30
23801;DHT22;12081;48.614;10.226;2023-10-13T17:45:46;20.10;57.50
23801;DHT22;12081;48.614;10.226;2023-10-13T17:48:34;20.00;57.70